createdAt,value
2022-12-13T00:00:45.340Z,2.50
2022-12-13T00:05:49.540Z,2.45
2022-12-13T00:11:00.764Z,1.90
2022-12-13T00:16:06.457Z,1.83
2022-12-13T00:21:14.117Z,2.58
2022-12-13T00:26:19.240Z,1.85
2022-12-13T00:31:56.664Z,1.65
2022-12-13T00:36:48.781Z,1.92
2022-12-13T00:41:52.112Z,2.25
2022-12-13T00:46:54.991Z,2.67
2022-12-13T00:52:00.096Z,1.85
2022-12-13T00:57:02.941Z,1.60
2022-12-13T01:02:05.878Z,2.63
2022-12-13T01:07:10.213Z,1.60
2022-12-13T01:12:13.184Z,1.40
2022-12-13T01:17:16.013Z,1.92
2022-12-13T01:22:20.278Z,2.00
2022-12-13T01:27:23.110Z,2.13
2022-12-13T01:32:25.926Z,1.45
2022-12-13T01:37:30.095Z,2.05
2022-12-13T01:42:33.228Z,1.50
2022-12-13T01:47:42.197Z,1.67
2022-12-13T01:52:47.647Z,1.80
2022-12-13T01:57:52.984Z,1.88
2022-12-13T02:02:58.829Z,1.48
2022-12-13T02:08:04.410Z,1.80
2022-12-13T02:13:07.306Z,1.55
2022-12-13T02:18:22.097Z,1.40
2022-12-13T02:23:49.144Z,1.60
2022-12-13T02:29:09.550Z,2.10
2022-12-13T02:34:20.033Z,1.65
2022-12-13T02:39:30.462Z,1.75
2022-12-13T02:44:38.684Z,1.75
2022-12-13T02:49:47.943Z,1.70
2022-12-13T02:54:50.974Z,1.50
2022-12-13T02:59:53.844Z,1.77
2022-12-13T03:05:28.232Z,1.40
2022-12-13T03:10:35.460Z,2.03
2022-12-13T03:15:45.938Z,1.60
2022-12-13T03:20:54.800Z,1.67
2022-12-13T03:26:00.560Z,1.50
2022-12-13T03:31:03.483Z,2.70
2022-12-13T03:36:09.300Z,2.03
2022-12-13T03:41:14.446Z,1.73
2022-12-13T03:46:17.539Z,1.40
2022-12-13T03:51:21.765Z,1.60
2022-12-13T03:56:24.647Z,1.10
2022-12-13T04:01:27.535Z,1.48
2022-12-13T04:06:33.150Z,1.13
2022-12-13T04:11:58.872Z,1.95
2022-12-13T04:17:01.678Z,2.08
2022-12-13T04:22:05.849Z,1.85
2022-12-13T04:27:08.658Z,1.80
2022-12-13T04:32:26.521Z,1.58
2022-12-13T04:37:31.615Z,2.05
2022-12-13T04:42:34.422Z,4.43
2022-12-13T04:47:37.206Z,1.77
2022-12-13T04:52:41.355Z,2.22
2022-12-13T04:57:44.178Z,5.00
2022-12-13T05:02:47.053Z,1.50
2022-12-13T05:07:51.292Z,2.35
2022-12-13T05:12:54.102Z,1.90
2022-12-13T05:17:56.996Z,1.23
2022-12-13T05:23:01.149Z,1.52
2022-12-13T05:28:08.909Z,1.70
2022-12-13T05:33:27.935Z,1.58
2022-12-13T05:38:32.947Z,2.35
2022-12-13T05:43:43.215Z,1.63
2022-12-13T05:48:46.806Z,2.40
2022-12-13T05:53:53.437Z,2.10
2022-12-13T05:58:56.542Z,2.20
2022-12-13T06:03:59.401Z,1.40
2022-12-13T06:09:03.707Z,2.00
2022-12-13T06:14:06.559Z,1.45
2022-12-13T06:19:26.038Z,2.97
2022-12-13T06:24:30.166Z,3.80
2022-12-13T06:29:33.013Z,3.22
2022-12-13T06:34:37.144Z,3.50
2022-12-13T06:39:42.033Z,4.88
2022-12-13T06:44:45.468Z,2.70
2022-12-13T06:49:48.365Z,3.13
2022-12-13T06:54:58.284Z,2.53
2022-12-13T07:00:04.835Z,2.88
2022-12-13T07:05:08.786Z,2.97
2022-12-13T07:10:22.051Z,7.20
2022-12-13T07:15:25.733Z,6.13
2022-12-13T07:20:28.736Z,7.90
2022-12-13T07:25:32.935Z,8.68
2022-12-13T07:30:41.065Z,7.80
2022-12-13T07:35:44.735Z,8.80
2022-12-13T07:40:48.899Z,9.10
2022-12-13T07:45:52.123Z,9.98
2022-12-13T07:50:55.281Z,7.13
2022-12-13T07:56:02.375Z,7.47
2022-12-13T08:01:07.754Z,6.60
2022-12-13T08:06:13.765Z,4.63
2022-12-13T08:11:18.060Z,5.30
2022-12-13T08:16:28.329Z,5.05
2022-12-13T08:27:02.295Z,6.75
2022-12-13T08:32:07.551Z,3.83
2022-12-13T08:37:10.536Z,3.70
2022-12-13T08:42:19.378Z,4.93
2022-12-13T08:47:26.748Z,4.43
2022-12-13T08:52:29.831Z,4.32
2022-12-13T08:57:36.794Z,5.22
2022-12-13T09:02:39.934Z,5.05
2022-12-13T09:07:43.246Z,3.92
2022-12-13T09:12:47.481Z,4.07
2022-12-13T09:17:52.372Z,3.50
2022-12-13T09:23:02.157Z,3.40
2022-12-13T09:28:08.146Z,3.50
2022-12-13T09:33:18.186Z,2.75
2022-12-13T09:38:33.417Z,3.90
2022-12-13T09:43:43.207Z,2.65
2022-12-13T09:48:48.457Z,6.18
2022-12-13T09:53:54.038Z,3.45
2022-12-13T09:58:59.325Z,5.45
2022-12-13T10:04:02.692Z,3.35
2022-12-13T10:09:09.395Z,4.13
2022-12-13T10:14:18.270Z,2.50
2022-12-13T10:19:28.106Z,4.28
2022-12-13T10:24:50.212Z,5.22
2022-12-13T10:30:10.618Z,3.45
2022-12-13T10:35:23.018Z,3.83
2022-12-13T10:40:32.875Z,2.75
2022-12-13T10:45:37.708Z,3.15
2022-12-13T10:50:40.841Z,3.45
2022-12-13T10:55:43.716Z,2.30
2022-12-13T11:00:49.349Z,2.30
2022-12-13T11:06:04.459Z,2.80
2022-12-13T11:11:09.268Z,2.00
2022-12-13T11:16:23.521Z,3.15
2022-12-13T11:21:28.722Z,3.05
2022-12-13T11:26:33.568Z,2.95
2022-12-13T11:31:46.913Z,2.55
2022-12-13T11:36:56.850Z,2.80
2022-12-13T11:42:05.718Z,2.10
2022-12-13T11:47:17.812Z,2.67
2022-12-13T11:52:26.341Z,2.38
2022-12-13T11:57:38.683Z,2.92
2022-12-13T12:02:50.215Z,3.15
2022-12-13T12:08:32.133Z,2.65
2022-12-13T12:13:28.291Z,3.03
2022-12-13T12:18:33.202Z,1.95
2022-12-13T12:23:53.016Z,2.55
2022-12-13T12:29:15.658Z,2.55
2022-12-13T12:34:30.113Z,2.47
2022-12-13T12:39:45.618Z,2.45
2022-12-13T12:45:27.157Z,4.53
2022-12-13T12:50:47.631Z,2.20
2022-12-13T12:55:57.558Z,2.13
2022-12-13T13:01:12.234Z,3.63
2022-12-13T13:06:21.173Z,3.15
2022-12-13T13:11:26.289Z,2.25
2022-12-13T13:16:40.110Z,3.25
2022-12-13T13:21:48.780Z,2.13
2022-12-13T13:26:54.341Z,2.22
2022-12-13T13:32:01.899Z,2.35
2022-12-13T13:37:45.091Z,3.05
2022-12-13T13:43:16.010Z,3.53
2022-12-13T13:48:45.266Z,2.13
2022-12-13T13:54:24.639Z,3.70
2022-12-13T14:00:06.554Z,2.22
2022-12-13T14:05:41.220Z,2.00
2022-12-13T14:10:54.762Z,1.98
2022-12-13T14:16:40.924Z,3.13
2022-12-13T14:22:10.030Z,2.28
2022-12-13T14:27:29.328Z,3.78
2022-12-13T14:32:38.304Z,2.20
2022-12-13T14:37:41.256Z,3.13
2022-12-13T14:42:48.020Z,1.80
2022-12-13T14:47:53.738Z,1.73
2022-12-13T14:52:57.590Z,2.15
2022-12-13T14:58:02.051Z,1.83
2022-12-13T15:03:07.262Z,2.47
2022-12-13T15:08:11.517Z,1.98
2022-12-13T15:13:29.337Z,2.67
2022-12-13T15:18:36.161Z,2.17
2022-12-13T15:23:48.756Z,1.52
2022-12-13T15:28:56.222Z,2.33
2022-12-13T15:34:29.362Z,1.67
2022-12-13T15:39:38.466Z,2.08
2022-12-13T15:44:47.965Z,4.50
2022-12-13T15:49:55.100Z,2.75
2022-12-13T15:54:58.879Z,2.45
2022-12-13T16:00:20.701Z,2.30
2022-12-13T16:05:37.725Z,2.35
2022-12-13T16:10:40.673Z,1.83
2022-12-13T16:15:50.234Z,4.07
2022-12-13T16:20:54.471Z,5.10
2022-12-13T16:25:57.422Z,5.22
2022-12-13T16:31:10.642Z,6.32
2022-12-13T16:36:14.914Z,4.78
2022-12-13T16:41:17.922Z,4.22
2022-12-13T16:47:15.462Z,5.85
2022-12-13T16:51:48.340Z,6.40
2022-12-13T16:56:52.563Z,3.60
2022-12-13T17:01:55.881Z,4.63
2022-12-13T17:07:00.105Z,3.97
2022-12-13T17:12:02.896Z,4.63
2022-12-13T17:17:05.745Z,4.45
2022-12-13T17:22:10.587Z,3.13
2022-12-13T17:27:13.564Z,2.60
2022-12-13T17:32:16.408Z,3.67
2022-12-13T17:37:20.884Z,2.60
2022-12-13T17:42:23.691Z,4.10
2022-12-13T17:47:26.567Z,3.35
2022-12-13T17:52:30.715Z,4.20
2022-12-13T17:57:34.024Z,3.22
2022-12-13T18:02:37.845Z,2.45
2022-12-13T18:07:42.324Z,3.35
2022-12-13T18:12:53.533Z,2.88
2022-12-13T18:18:13.418Z,3.95
2022-12-13T18:23:18.086Z,2.45
2022-12-13T18:28:20.916Z,3.25
2022-12-13T18:33:24.208Z,4.28
2022-12-13T18:38:35.939Z,2.83
2022-12-13T18:43:39.618Z,3.20
2022-12-13T18:48:42.749Z,3.92
2022-12-13T18:53:47.064Z,3.15
2022-12-13T18:58:50.993Z,4.45
2022-12-13T19:03:53.922Z,4.65
2022-12-13T19:08:59.225Z,3.45
2022-12-13T19:14:02.144Z,3.05
2022-12-13T19:19:06.904Z,2.80
2022-12-13T19:24:13.847Z,4.82
2022-12-13T19:29:16.926Z,2.05
2022-12-13T19:34:20.023Z,2.88
2022-12-13T19:39:25.009Z,2.75
2022-12-13T19:44:27.850Z,2.40
2022-12-13T19:49:30.643Z,3.13
2022-12-13T19:54:34.812Z,2.88
2022-12-13T19:59:37.598Z,3.40
2022-12-13T20:04:40.413Z,3.72
2022-12-13T20:09:44.589Z,3.85
2022-12-13T20:14:47.390Z,6.72
2022-12-13T20:19:50.205Z,2.80
2022-12-13T20:24:54.342Z,2.92
2022-12-13T20:29:57.113Z,2.55
2022-12-13T20:35:00.032Z,2.40
2022-12-13T20:40:04.589Z,2.47
2022-12-13T20:45:08.868Z,2.63
2022-12-13T20:50:12.127Z,3.10
2022-12-13T20:55:20.053Z,5.13
2022-12-13T21:00:23.243Z,2.72
2022-12-13T21:05:27.241Z,3.05
2022-12-13T21:10:31.380Z,2.67
2022-12-13T21:15:34.182Z,4.38
2022-12-13T21:20:37.040Z,3.10
2022-12-13T21:25:41.253Z,3.05
2022-12-13T21:30:44.048Z,2.85
2022-12-13T21:35:46.896Z,3.95
2022-12-13T21:40:51.738Z,3.05
2022-12-13T21:45:54.643Z,2.53
2022-12-13T21:50:57.510Z,4.00
2022-12-13T21:56:19.424Z,2.50
2022-12-13T22:01:22.414Z,2.83
2022-12-13T22:06:25.252Z,2.65
2022-12-13T22:11:30.984Z,2.97
2022-12-13T22:16:33.853Z,2.40
2022-12-13T22:21:36.676Z,3.35
2022-12-13T22:26:41.626Z,2.92
2022-12-13T22:31:48.742Z,2.95
2022-12-13T22:36:51.990Z,3.03
2022-12-13T22:41:56.168Z,5.38
2022-12-13T22:46:59.026Z,3.03
2022-12-13T22:52:01.848Z,2.83
2022-12-13T22:57:06.063Z,3.78
2022-12-13T23:02:09.821Z,3.28
2022-12-13T23:07:12.831Z,2.70
2022-12-13T23:12:34.522Z,3.97
2022-12-13T23:17:37.381Z,3.10
2022-12-13T23:22:40.187Z,3.03
2022-12-13T23:27:44.390Z,3.03
2022-12-13T23:32:47.186Z,4.50
2022-12-13T23:37:50.015Z,4.93
2022-12-13T23:42:54.158Z,3.20
2022-12-13T23:47:56.985Z,4.15
2022-12-13T23:52:59.782Z,2.70
2022-12-13T23:58:04.032Z,3.53
